Medway, Massachusetts
Current Conditions -  °F | °C
As of 4:53 PM on Tuesday 25 Nov 2014 (Local Time) from KOWD Reporting Station
Clear Clear  
Wind Chill: 55°   Ceiling: Unl
Heat Index: 55°   Visibility: 10mi
Dew Point: 26°   Wind: 6mph
Humidity: 33%   Direction: 240°WSW
Pressure: 29.95"   Gusts: NA
Location:  42.14°N, 71.4°W
Report Text: KOWD 252153Z 24005KT 10SM CLR 13/M03 A2995 RMK AO2 SLP140 T01281033
Loading
Personal Weather Stations






























Interactive Weather Map New forecast layout! Learn more

10-Day Weather Forecast

Advertisements
Track Severe Weather on mobile